sensor_id;sensor_type;location;lat;lon;timestamp;pressure;altitude;pressure_sealevel;temperature;humidity
51147;BME280;37207;53.060;18.726;2023-02-01T00:00:54;99421.11;;;1.84;98.28
51147;BME280;37207;53.060;18.726;2023-02-01T00:03:25;99421.69;;;1.85;98.28
51147;BME280;37207;53.060;18.726;2023-02-01T00:05:59;99422.57;;;1.86;98.21
51147;BME280;37207;53.060;18.726;2023-02-01T00:08:26;99419.38;;;1.88;98.15
51147;BME280;37207;53.060;18.726;2023-02-01T00:11:01;99423.55;;;1.89;98.18
51147;BME280;37207;53.060;18.726;2023-02-01T00:13:29;99427.82;;;1.89;98.14
51147;BME280;37207;53.060;18.726;2023-02-01T00:16:11;99425.11;;;1.90;98.14
51147;BME280;37207;53.060;18.726;2023-02-01T00:18:39;99436.21;;;1.91;98.06
51147;BME280;37207;53.060;18.726;2023-02-01T00:21:05;99428.70;;;1.91;98.13
51147;BME280;37207;53.060;18.726;2023-02-01T00:23:34;99427.00;;;1.93;98.01
51147;BME280;37207;53.060;18.726;2023-02-01T00:26:01;99432.96;;;1.93;97.90
51147;BME280;37207;53.060;18.726;2023-02-01T00:28:28;99428.27;;;1.94;97.91
51147;BME280;37207;53.060;18.726;2023-02-01T00:30:59;99433.78;;;1.94;97.72
51147;BME280;37207;53.060;18.726;2023-02-01T00:33:28;99435.21;;;1.96;97.76
51147;BME280;37207;53.060;18.726;2023-02-01T00:36:06;99433.81;;;1.97;97.67
51147;BME280;37207;53.060;18.726;2023-02-01T00:38:35;99437.52;;;1.98;97.63
51147;BME280;37207;53.060;18.726;2023-02-01T00:41:13;99437.21;;;2.00;97.43
51147;BME280;37207;53.060;18.726;2023-02-01T00:43:41;99441.05;;;2.01;97.42
51147;BME280;37207;53.060;18.726;2023-02-01T00:46:08;99444.38;;;2.01;97.37
51147;BME280;37207;53.060;18.726;2023-02-01T00:48:35;99441.14;;;2.03;97.34
51147;BME280;37207;53.060;18.726;2023-02-01T00:51:07;99445.02;;;2.03;97.29
51147;BME280;37207;53.060;18.726;2023-02-01T00:53:35;99442.41;;;2.04;97.24
51147;BME280;37207;53.060;18.726;2023-02-01T00:56:03;99439.41;;;2.04;97.17
51147;BME280;37207;53.060;18.726;2023-02-01T00:58:30;99442.23;;;2.04;97.14
51147;BME280;37207;53.060;18.726;2023-02-01T01:03:26;99440.30;;;2.04;97.05
51147;BME280;37207;53.060;18.726;2023-02-01T01:05:57;99437.70;;;2.05;96.95
51147;BME280;37207;53.060;18.726;2023-02-01T01:08:23;99439.66;;;2.04;97.03
51147;BME280;37207;53.060;18.726;2023-02-01T01:10:50;99436.48;;;2.04;96.84
51147;BME280;37207;53.060;18.726;2023-02-01T01:13:16;99431.01;;;2.05;96.83
51147;BME280;37207;53.060;18.726;2023-02-01T01:15:44;99432.20;;;2.04;96.80
51147;BME280;37207;53.060;18.726;2023-02-01T01:18:10;99427.80;;;2.03;96.68
51147;BME280;37207;53.060;18.726;2023-02-01T01:20:39;99423.73;;;2.02;96.56
51147;BME280;37207;53.060;18.726;2023-02-01T01:23:07;99419.38;;;2.00;96.42
51147;BME280;37207;53.060;18.726;2023-02-01T01:25:40;99416.77;;;1.97;96.42
51147;BME280;37207;53.060;18.726;2023-02-01T01:28:07;99418.38;;;1.94;96.40
51147;BME280;37207;53.060;18.726;2023-02-01T01:30:34;99413.74;;;1.93;96.49
51147;BME280;37207;53.060;18.726;2023-02-01T01:33:01;99421.29;;;1.92;96.68
51147;BME280;37207;53.060;18.726;2023-02-01T01:35:30;99429.52;;;1.92;96.72
51147;BME280;37207;53.060;18.726;2023-02-01T01:37:58;99440.38;;;1.93;96.92
51147;BME280;37207;53.060;18.726;2023-02-01T01:40:27;99438.05;;;1.93;96.94
51147;BME280;37207;53.060;18.726;2023-02-01T01:42:54;99438.20;;;1.93;97.01
51147;BME280;37207;53.060;18.726;2023-02-01T01:45:30;99436.53;;;1.92;97.21
51147;BME280;37207;53.060;18.726;2023-02-01T01:48:04;99434.90;;;1.92;97.18
51147;BME280;37207;53.060;18.726;2023-02-01T01:50:40;99431.40;;;1.90;97.29
51147;BME280;37207;53.060;18.726;2023-02-01T01:53:08;99429.33;;;1.90;97.36
51147;BME280;37207;53.060;18.726;2023-02-01T01:55:40;99431.56;;;1.88;97.38
51147;BME280;37207;53.060;18.726;2023-02-01T01:58:12;99434.20;;;1.89;97.45
51147;BME280;37207;53.060;18.726;2023-02-01T02:00:41;99434.04;;;1.89;97.46
51147;BME280;37207;53.060;18.726;2023-02-01T02:06:26;99435.08;;;1.88;97.74
51147;BME280;37207;53.060;18.726;2023-02-01T02:08:54;99431.59;;;1.88;97.69
51147;BME280;37207;53.060;18.726;2023-02-01T02:11:21;99435.02;;;1.88;97.62
51147;BME280;37207;53.060;18.726;2023-02-01T02:13:50;99433.38;;;1.88;97.48
51147;BME280;37207;53.060;18.726;2023-02-01T02:16:31;99432.45;;;1.90;97.65
51147;BME280;37207;53.060;18.726;2023-02-01T02:39:05;99430.88;;;1.93;97.59
51147;BME280;37207;53.060;18.726;2023-02-01T02:42:11;99422.31;;;1.93;97.45
51147;BME280;37207;53.060;18.726;2023-02-01T02:45:21;99423.40;;;1.93;97.39
51147;BME280;37207;53.060;18.726;2023-02-01T02:48:19;99426.85;;;1.95;97.46
51147;BME280;37207;53.060;18.726;2023-02-01T02:51:12;99428.88;;;1.96;97.46
51147;BME280;37207;53.060;18.726;2023-02-01T02:54:01;99432.04;;;1.99;97.44
51147;BME280;37207;53.060;18.726;2023-02-01T02:56:49;99438.33;;;2.01;97.27
51147;BME280;37207;53.060;18.726;2023-02-01T02:59:36;99437.91;;;2.02;97.19
51147;BME280;37207;53.060;18.726;2023-02-01T03:02:23;99439.73;;;2.03;97.15
51147;BME280;37207;53.060;18.726;2023-02-01T03:05:12;99438.36;;;2.04;97.09
51147;BME280;37207;53.060;18.726;2023-02-01T03:07:55;99440.93;;;2.05;96.93
51147;BME280;37207;53.060;18.726;2023-02-01T03:13:28;99449.23;;;2.09;96.54
51147;BME280;37207;53.060;18.726;2023-02-01T03:21:24;99443.66;;;2.10;95.85
51147;BME280;37207;53.060;18.726;2023-02-01T03:23:55;99442.37;;;2.10;95.58
51147;BME280;37207;53.060;18.726;2023-02-01T03:26:25;99444.45;;;2.10;95.24
51147;BME280;37207;53.060;18.726;2023-02-01T03:28:59;99450.84;;;2.10;95.04
51147;BME280;37207;53.060;18.726;2023-02-01T03:31:29;99451.20;;;2.11;94.79
51147;BME280;37207;53.060;18.726;2023-02-01T03:33:55;99452.33;;;2.12;94.86
51147;BME280;37207;53.060;18.726;2023-02-01T03:36:30;99451.48;;;2.12;94.89
51147;BME280;37207;53.060;18.726;2023-02-01T03:39:09;99456.20;;;2.12;94.18
51147;BME280;37207;53.060;18.726;2023-02-01T03:41:57;99456.84;;;2.14;94.02
51147;BME280;37207;53.060;18.726;2023-02-01T03:44:29;99458.66;;;2.17;93.81
51147;BME280;37207;53.060;18.726;2023-02-01T03:47:21;99457.05;;;2.20;93.40
51147;BME280;37207;53.060;18.726;2023-02-01T03:49:54;99458.27;;;2.22;93.68
51147;BME280;37207;53.060;18.726;2023-02-01T03:52:26;99443.13;;;2.23;93.35
51147;BME280;37207;53.060;18.726;2023-02-01T03:54:55;99439.55;;;2.23;93.12
51147;BME280;37207;53.060;18.726;2023-02-01T03:57:27;99439.14;;;2.22;92.86
51147;BME280;37207;53.060;18.726;2023-02-01T04:00:05;99433.98;;;2.20;92.85
51147;BME280;37207;53.060;18.726;2023-02-01T04:02:40;99439.27;;;2.17;92.62
51147;BME280;37207;53.060;18.726;2023-02-01T04:05:07;99439.25;;;2.16;92.04
51147;BME280;37207;53.060;18.726;2023-02-01T04:07:34;99447.40;;;2.16;91.70
51147;BME280;37207;53.060;18.726;2023-02-01T04:10:01;99444.64;;;2.17;91.90
51147;BME280;37207;53.060;18.726;2023-02-01T04:12:29;99448.82;;;2.17;91.85
51147;BME280;37207;53.060;18.726;2023-02-01T04:14:56;99442.34;;;2.18;91.72
51147;BME280;37207;53.060;18.726;2023-02-01T04:17:22;99444.89;;;2.19;91.58
51147;BME280;37207;53.060;18.726;2023-02-01T04:19:49;99442.44;;;2.19;91.66
51147;BME280;37207;53.060;18.726;2023-02-01T04:22:16;99429.95;;;2.20;91.47
51147;BME280;37207;53.060;18.726;2023-02-01T04:24:42;99431.51;;;2.20;91.35
51147;BME280;37207;53.060;18.726;2023-02-01T04:27:09;99432.77;;;2.20;91.46
51147;BME280;37207;53.060;18.726;2023-02-01T04:29:35;99436.32;;;2.21;91.35
51147;BME280;37207;53.060;18.726;2023-02-01T04:32:02;99436.02;;;2.22;91.42
51147;BME280;37207;53.060;18.726;2023-02-01T04:34:28;99431.05;;;2.24;91.43
51147;BME280;37207;53.060;18.726;2023-02-01T04:36:55;99434.98;;;2.25;91.50
51147;BME280;37207;53.060;18.726;2023-02-01T04:39:22;99434.69;;;2.27;91.19
51147;BME280;37207;53.060;18.726;2023-02-01T04:41:48;99442.16;;;2.29;90.98
51147;BME280;37207;53.060;18.726;2023-02-01T04:44:18;99437.95;;;2.31;91.09
51147;BME280;37207;53.060;18.726;2023-02-01T04:46:46;99433.56;;;2.31;90.99
51147;BME280;37207;53.060;18.726;2023-02-01T04:49:14;99434.95;;;2.32;90.92
51147;BME280;37207;53.060;18.726;2023-02-01T04:51:41;99429.53;;;2.33;90.77
51147;BME280;37207;53.060;18.726;2023-02-01T04:54:09;99430.60;;;2.33;90.80
51147;BME280;37207;53.060;18.726;2023-02-01T04:56:37;99432.44;;;2.34;90.32
51147;BME280;37207;53.060;18.726;2023-02-01T04:59:05;99436.05;;;2.35;90.74
51147;BME280;37207;53.060;18.726;2023-02-01T05:01:32;99441.14;;;2.36;90.79
51147;BME280;37207;53.060;18.726;2023-02-01T05:03:59;99434.74;;;2.40;90.49
51147;BME280;37207;53.060;18.726;2023-02-01T05:06:25;99439.45;;;2.42;90.65
51147;BME280;37207;53.060;18.726;2023-02-01T05:08:52;99444.59;;;2.44;90.56
51147;BME280;37207;53.060;18.726;2023-02-01T05:11:18;99441.98;;;2.45;90.73
51147;BME280;37207;53.060;18.726;2023-02-01T05:14:04;99442.23;;;2.45;90.77
51147;BME280;37207;53.060;18.726;2023-02-01T05:16:30;99441.31;;;2.44;90.90
51147;BME280;37207;53.060;18.726;2023-02-01T05:18:57;99441.89;;;2.43;91.00
51147;BME280;37207;53.060;18.726;2023-02-01T05:21:24;99442.16;;;2.41;91.01
51147;BME280;37207;53.060;18.726;2023-02-01T05:23:51;99435.80;;;2.41;91.10
51147;BME280;37207;53.060;18.726;2023-02-01T05:26:36;99434.59;;;2.40;91.07
51147;BME280;37207;53.060;18.726;2023-02-01T05:29:04;99429.20;;;2.38;91.28
51147;BME280;37207;53.060;18.726;2023-02-01T05:31:31;99428.20;;;2.38;91.26
51147;BME280;37207;53.060;18.726;2023-02-01T05:33:58;99425.72;;;2.38;91.22
51147;BME280;37207;53.060;18.726;2023-02-01T05:36:25;99424.60;;;2.39;91.40
51147;BME280;37207;53.060;18.726;2023-02-01T05:38:51;99429.41;;;2.39;91.49
51147;BME280;37207;53.060;18.726;2023-02-01T05:41:18;99420.05;;;2.39;91.48
51147;BME280;37207;53.060;18.726;2023-02-01T05:43:45;99413.66;;;2.39;91.56
51147;BME280;37207;53.060;18.726;2023-02-01T05:46:11;99410.84;;;2.40;91.47
51147;BME280;37207;53.060;18.726;2023-02-01T05:48:40;99407.77;;;2.39;91.52
51147;BME280;37207;53.060;18.726;2023-02-01T05:51:06;99416.78;;;2.39;91.40
51147;BME280;37207;53.060;18.726;2023-02-01T05:53:33;99425.29;;;2.41;91.41
51147;BME280;37207;53.060;18.726;2023-02-01T05:56:00;99417.25;;;2.43;91.45
51147;BME280;37207;53.060;18.726;2023-02-01T05:58:27;99412.11;;;2.46;91.56
51147;BME280;37207;53.060;18.726;2023-02-01T06:00:53;99419.88;;;2.49;91.39
51147;BME280;37207;53.060;18.726;2023-02-01T06:03:20;99418.54;;;2.51;91.29
51147;BME280;37207;53.060;18.726;2023-02-01T06:05:47;99418.44;;;2.53;91.20
51147;BME280;37207;53.060;18.726;2023-02-01T06:08:14;99417.32;;;2.55;91.15
51147;BME280;37207;53.060;18.726;2023-02-01T06:10:40;99417.73;;;2.56;90.98
51147;BME280;37207;53.060;18.726;2023-02-01T06:13:07;99417.42;;;2.58;90.91
51147;BME280;37207;53.060;18.726;2023-02-01T06:15:35;99420.13;;;2.59;90.80
51147;BME280;37207;53.060;18.726;2023-02-01T06:18:04;99425.20;;;2.60;90.52
51147;BME280;37207;53.060;18.726;2023-02-01T06:20:30;99426.46;;;2.61;90.49
51147;BME280;37207;53.060;18.726;2023-02-01T06:22:57;99426.34;;;2.62;90.51
51147;BME280;37207;53.060;18.726;2023-02-01T06:25:23;99427.33;;;2.64;90.29
51147;BME280;37207;53.060;18.726;2023-02-01T06:27:50;99429.39;;;2.65;90.10
51147;BME280;37207;53.060;18.726;2023-02-01T06:30:17;99427.96;;;2.66;90.18
51147;BME280;37207;53.060;18.726;2023-02-01T06:32:44;99426.20;;;2.67;89.81
51147;BME280;37207;53.060;18.726;2023-02-01T06:35:11;99428.11;;;2.68;89.72
51147;BME280;37207;53.060;18.726;2023-02-01T06:37:42;99422.17;;;2.68;89.82
51147;BME280;37207;53.060;18.726;2023-02-01T06:40:09;99416.35;;;2.67;89.64
51147;BME280;37207;53.060;18.726;2023-02-01T06:42:36;99419.05;;;2.66;89.49
51147;BME280;37207;53.060;18.726;2023-02-01T06:45:03;99414.61;;;2.65;89.50
51147;BME280;37207;53.060;18.726;2023-02-01T06:47:30;99403.73;;;2.62;89.64
51147;BME280;37207;53.060;18.726;2023-02-01T06:49:56;99400.23;;;2.61;89.63
51147;BME280;37207;53.060;18.726;2023-02-01T06:52:23;99412.66;;;2.60;89.50
51147;BME280;37207;53.060;18.726;2023-02-01T06:54:49;99419.05;;;2.60;89.73
51147;BME280;37207;53.060;18.726;2023-02-01T06:57:16;99418.90;;;2.60;89.66
51147;BME280;37207;53.060;18.726;2023-02-01T06:59:42;99416.07;;;2.59;89.66
51147;BME280;37207;53.060;18.726;2023-02-01T07:02:11;99422.17;;;2.60;89.63
51147;BME280;37207;53.060;18.726;2023-02-01T07:04:38;99423.03;;;2.61;89.61
51147;BME280;37207;53.060;18.726;2023-02-01T07:07:04;99423.00;;;2.62;89.69
51147;BME280;37207;53.060;18.726;2023-02-01T07:09:31;99420.00;;;2.63;89.65
51147;BME280;37207;53.060;18.726;2023-02-01T07:11:57;99418.42;;;2.63;89.48
51147;BME280;37207;53.060;18.726;2023-02-01T07:14:24;99418.82;;;2.65;89.62
51147;BME280;37207;53.060;18.726;2023-02-01T07:16:50;99419.45;;;2.68;89.49
51147;BME280;37207;53.060;18.726;2023-02-01T07:19:17;99423.65;;;2.71;89.31
51147;BME280;37207;53.060;18.726;2023-02-01T07:21:44;99418.83;;;2.73;89.33
51147;BME280;37207;53.060;18.726;2023-02-01T07:24:10;99414.40;;;2.74;89.42
51147;BME280;37207;53.060;18.726;2023-02-01T07:26:37;99422.13;;;2.76;89.30
51147;BME280;37207;53.060;18.726;2023-02-01T07:29:03;99414.95;;;2.77;89.31
51147;BME280;37207;53.060;18.726;2023-02-01T07:31:30;99422.79;;;2.79;89.06
51147;BME280;37207;53.060;18.726;2023-02-01T07:33:57;99420.03;;;2.82;89.08
51147;BME280;37207;53.060;18.726;2023-02-01T07:36:24;99413.02;;;2.84;88.64
51147;BME280;37207;53.060;18.726;2023-02-01T07:38:51;99403.46;;;2.87;88.56
51147;BME280;37207;53.060;18.726;2023-02-01T07:41:18;99407.59;;;2.93;88.67
51147;BME280;37207;53.060;18.726;2023-02-01T07:43:44;99410.81;;;3.01;88.26
51147;BME280;37207;53.060;18.726;2023-02-01T07:46:12;99407.83;;;3.06;88.27
51147;BME280;37207;53.060;18.726;2023-02-01T07:48:38;99408.34;;;3.11;88.09
51147;BME280;37207;53.060;18.726;2023-02-01T07:51:09;99412.83;;;3.18;87.77
51147;BME280;37207;53.060;18.726;2023-02-01T07:53:36;99415.27;;;3.22;87.27
51147;BME280;37207;53.060;18.726;2023-02-01T07:56:04;99412.39;;;3.27;87.13
51147;BME280;37207;53.060;18.726;2023-02-01T07:58:34;99409.31;;;3.37;87.06
51147;BME280;37207;53.060;18.726;2023-02-01T08:01:01;99412.83;;;3.49;86.89
51147;BME280;37207;53.060;18.726;2023-02-01T08:04:04;99412.67;;;3.51;86.44
51147;BME280;37207;53.060;18.726;2023-02-01T08:06:32;99408.38;;;3.49;86.12
51147;BME280;37207;53.060;18.726;2023-02-01T08:09:01;99422.52;;;3.49;85.80
51147;BME280;37207;53.060;18.726;2023-02-01T08:11:28;99418.08;;;3.55;85.95
51147;BME280;37207;53.060;18.726;2023-02-01T08:13:55;99424.38;;;3.59;85.83
51147;BME280;37207;53.060;18.726;2023-02-01T08:16:22;99421.95;;;3.65;85.83
51147;BME280;37207;53.060;18.726;2023-02-01T08:18:49;99422.36;;;3.72;85.19
51147;BME280;37207;53.060;18.726;2023-02-01T08:21:19;99425.84;;;3.73;85.24
51147;BME280;37207;53.060;18.726;2023-02-01T08:23:46;99427.98;;;3.73;85.34
51147;BME280;37207;53.060;18.726;2023-02-01T08:28:48;99430.72;;;3.79;84.77
51147;BME280;37207;53.060;18.726;2023-02-01T08:31:17;99436.05;;;3.82;85.08
51147;BME280;37207;53.060;18.726;2023-02-01T08:33:48;99433.88;;;3.83;84.81
51147;BME280;37207;53.060;18.726;2023-02-01T08:36:15;99437.38;;;3.87;84.88
51147;BME280;37207;53.060;18.726;2023-02-01T08:38:42;99433.38;;;3.88;84.45
51147;BME280;37207;53.060;18.726;2023-02-01T08:41:11;99433.84;;;3.86;84.22
51147;BME280;37207;53.060;18.726;2023-02-01T08:43:39;99432.68;;;3.91;84.16
51147;BME280;37207;53.060;18.726;2023-02-01T08:46:06;99429.86;;;4.01;84.22
51147;BME280;37207;53.060;18.726;2023-02-01T08:48:34;99428.83;;;4.10;83.31
51147;BME280;37207;53.060;18.726;2023-02-01T08:51:09;99421.70;;;4.13;83.56
51147;BME280;37207;53.060;18.726;2023-02-01T08:53:37;99418.23;;;4.15;83.56
51147;BME280;37207;53.060;18.726;2023-02-01T08:56:07;99420.58;;;4.22;83.37
51147;BME280;37207;53.060;18.726;2023-02-01T08:58:34;99419.39;;;4.33;83.14
51147;BME280;37207;53.060;18.726;2023-02-01T09:01:06;99421.08;;;4.39;82.59
51147;BME280;37207;53.060;18.726;2023-02-01T09:03:32;99413.00;;;4.43;82.63
51147;BME280;37207;53.060;18.726;2023-02-01T09:06:03;99423.74;;;4.48;82.23
51147;BME280;37207;53.060;18.726;2023-02-01T09:08:31;99413.96;;;4.50;81.42
51147;BME280;37207;53.060;18.726;2023-02-01T09:11:00;99419.67;;;4.51;82.15
51147;BME280;37207;53.060;18.726;2023-02-01T09:13:27;99421.31;;;4.56;81.44
51147;BME280;37207;53.060;18.726;2023-02-01T09:15:54;99422.54;;;4.58;81.80
51147;BME280;37207;53.060;18.726;2023-02-01T09:18:21;99416.02;;;4.55;81.68
51147;BME280;37207;53.060;18.726;2023-02-01T09:20:47;99423.12;;;4.60;81.64
51147;BME280;37207;53.060;18.726;2023-02-01T09:23:14;99429.61;;;4.62;82.15
51147;BME280;37207;53.060;18.726;2023-02-01T09:25:41;99431.95;;;4.59;82.02
51147;BME280;37207;53.060;18.726;2023-02-01T09:28:07;99437.28;;;4.57;81.95
51147;BME280;37207;53.060;18.726;2023-02-01T09:30:36;99446.61;;;4.51;81.80
51147;BME280;37207;53.060;18.726;2023-02-01T09:33:03;99446.19;;;4.42;81.94
51147;BME280;37207;53.060;18.726;2023-02-01T09:35:30;99448.20;;;4.38;81.75
51147;BME280;37207;53.060;18.726;2023-02-01T09:37:57;99455.19;;;4.37;81.89
51147;BME280;37207;53.060;18.726;2023-02-01T09:40:24;99452.88;;;4.38;82.28
51147;BME280;37207;53.060;18.726;2023-02-01T09:43:12;99450.20;;;4.38;82.72
51147;BME280;37207;53.060;18.726;2023-02-01T09:48:15;99453.22;;;4.40;82.29
51147;BME280;37207;53.060;18.726;2023-02-01T09:50:51;99458.42;;;4.47;82.29
51147;BME280;37207;53.060;18.726;2023-02-01T09:53:25;99460.14;;;4.56;82.34
51147;BME280;37207;53.060;18.726;2023-02-01T09:56:00;99454.27;;;4.58;82.11
51147;BME280;37207;53.060;18.726;2023-02-01T09:58:35;99457.00;;;4.53;82.04
51147;BME280;37207;53.060;18.726;2023-02-01T10:01:08;99454.64;;;4.45;82.22
51147;BME280;37207;53.060;18.726;2023-02-01T10:03:37;99455.30;;;4.39;82.70
51147;BME280;37207;53.060;18.726;2023-02-01T10:06:20;99450.48;;;4.37;82.91
51147;BME280;37207;53.060;18.726;2023-02-01T10:17:51;99440.02;;;4.33;82.83
51147;BME280;37207;53.060;18.726;2023-02-01T10:26:37;99435.33;;;4.40;83.73
51147;BME280;37207;53.060;18.726;2023-02-01T10:29:14;99436.95;;;4.55;84.07
51147;BME280;37207;53.060;18.726;2023-02-01T10:31:43;99434.75;;;4.66;83.51
51147;BME280;37207;53.060;18.726;2023-02-01T10:39:49;99444.27;;;4.92;82.38
51147;BME280;37207;53.060;18.726;2023-02-01T10:42:20;99441.27;;;4.94;82.10
51147;BME280;37207;53.060;18.726;2023-02-01T10:44:48;99437.92;;;4.94;81.89
51147;BME280;37207;53.060;18.726;2023-02-01T10:47:15;99441.58;;;4.93;81.59
51147;BME280;37207;53.060;18.726;2023-02-01T10:49:58;99436.47;;;4.90;81.99
51147;BME280;37207;53.060;18.726;2023-02-01T10:52:38;99444.76;;;4.95;82.38
51147;BME280;37207;53.060;18.726;2023-02-01T10:55:26;99438.36;;;4.96;82.08
51147;BME280;37207;53.060;18.726;2023-02-01T10:57:59;99441.10;;;4.93;81.77
51147;BME280;37207;53.060;18.726;2023-02-01T11:00:26;99447.67;;;4.94;82.43
51147;BME280;37207;53.060;18.726;2023-02-01T11:02:54;99440.72;;;4.97;82.41
51147;BME280;37207;53.060;18.726;2023-02-01T11:05:21;99449.52;;;4.97;82.30
51147;BME280;37207;53.060;18.726;2023-02-01T11:07:53;99445.95;;;4.95;82.43
51147;BME280;37207;53.060;18.726;2023-02-01T11:10:39;99447.34;;;4.95;82.63
51147;BME280;37207;53.060;18.726;2023-02-01T11:13:15;99451.77;;;4.92;82.73
51147;BME280;37207;53.060;18.726;2023-02-01T11:15:47;99454.73;;;4.86;82.20
51147;BME280;37207;53.060;18.726;2023-02-01T11:18:27;99460.14;;;4.79;82.61
51147;BME280;37207;53.060;18.726;2023-02-01T11:20:54;99454.33;;;4.77;82.55
51147;BME280;37207;53.060;18.726;2023-02-01T11:23:24;99451.45;;;4.77;82.75
51147;BME280;37207;53.060;18.726;2023-02-01T11:25:58;99451.10;;;4.77;82.50
51147;BME280;37207;53.060;18.726;2023-02-01T11:28:33;99445.00;;;4.81;82.15
51147;BME280;37207;53.060;18.726;2023-02-01T11:31:09;99440.72;;;4.91;82.50
51147;BME280;37207;53.060;18.726;2023-02-01T11:33:38;99435.59;;;5.14;82.46
51147;BME280;37207;53.060;18.726;2023-02-01T11:36:12;99436.46;;;5.42;82.31
51147;BME280;37207;53.060;18.726;2023-02-01T11:38:46;99435.09;;;5.50;81.53
51147;BME280;37207;53.060;18.726;2023-02-01T11:41:25;99436.16;;;5.48;80.81
51147;BME280;37207;53.060;18.726;2023-02-01T11:43:56;99440.77;;;5.42;81.04
51147;BME280;37207;53.060;18.726;2023-02-01T11:46:32;99440.00;;;5.42;81.39
51147;BME280;37207;53.060;18.726;2023-02-01T11:54:30;99428.90;;;5.95;80.24
51147;BME280;37207;53.060;18.726;2023-02-01T12:00:33;99429.80;;;5.83;79.60
51147;BME280;37207;53.060;18.726;2023-02-01T12:36:05;99388.27;;;5.55;82.16
51147;BME280;37207;53.060;18.726;2023-02-01T12:43:59;99396.52;;;5.66;82.03
51147;BME280;37207;53.060;18.726;2023-02-01T12:46:35;99399.45;;;5.65;81.79
51147;BME280;37207;53.060;18.726;2023-02-01T12:51:38;99412.63;;;5.47;81.64
51147;BME280;37207;53.060;18.726;2023-02-01T12:57:25;99401.15;;;5.29;82.09
51147;BME280;37207;53.060;18.726;2023-02-01T13:00:13;99402.11;;;5.19;82.21
51147;BME280;37207;53.060;18.726;2023-02-01T13:03:11;99406.40;;;5.06;82.40
51147;BME280;37207;53.060;18.726;2023-02-01T13:05:52;99407.86;;;4.96;82.58
51147;BME280;37207;53.060;18.726;2023-02-01T13:08:27;99410.36;;;4.87;82.45
51147;BME280;37207;53.060;18.726;2023-02-01T13:11:06;99405.58;;;4.76;82.57
51147;BME280;37207;53.060;18.726;2023-02-01T13:14:44;99403.47;;;4.66;82.61
51147;BME280;37207;53.060;18.726;2023-02-01T13:16:44;99405.14;;;4.59;83.07
51147;BME280;37207;53.060;18.726;2023-02-01T13:19:41;99406.69;;;4.53;83.23
51147;BME280;37207;53.060;18.726;2023-02-01T13:22:34;99409.40;;;4.51;83.47
51147;BME280;37207;53.060;18.726;2023-02-01T13:25:13;99406.69;;;4.62;83.72
51147;BME280;37207;53.060;18.726;2023-02-01T13:27:40;99409.86;;;4.68;83.49
51147;BME280;37207;53.060;18.726;2023-02-01T13:30:29;99408.41;;;4.70;83.50
51147;BME280;37207;53.060;18.726;2023-02-01T13:33:27;99411.91;;;4.69;83.46
51147;BME280;37207;53.060;18.726;2023-02-01T13:41:32;99409.08;;;4.53;83.55
51147;BME280;37207;53.060;18.726;2023-02-01T13:44:12;99408.98;;;4.51;83.75
51147;BME280;37207;53.060;18.726;2023-02-01T13:46:43;99409.95;;;4.51;84.01
51147;BME280;37207;53.060;18.726;2023-02-01T13:49:21;99415.94;;;4.50;83.71
51147;BME280;37207;53.060;18.726;2023-02-01T13:51:51;99414.34;;;4.49;83.74
51147;BME280;37207;53.060;18.726;2023-02-01T13:54:37;99424.91;;;4.47;83.78
51147;BME280;37207;53.060;18.726;2023-02-01T14:00:32;99422.20;;;4.43;83.98
51147;BME280;37207;53.060;18.726;2023-02-01T14:13:30;99422.81;;;4.32;83.71
51147;BME280;37207;53.060;18.726;2023-02-01T14:21:22;99424.39;;;4.26;83.60
51147;BME280;37207;53.060;18.726;2023-02-01T14:26:42;99427.95;;;4.20;83.68
51147;BME280;37207;53.060;18.726;2023-02-01T14:34:25;99428.83;;;4.10;84.13
51147;BME280;37207;53.060;18.726;2023-02-01T14:37:03;99423.66;;;4.05;84.14
51147;BME280;37207;53.060;18.726;2023-02-01T14:42:21;99425.34;;;3.96;84.56
51147;BME280;37207;53.060;18.726;2023-02-01T14:44:49;99426.80;;;3.91;84.71
51147;BME280;37207;53.060;18.726;2023-02-01T14:55:15;99431.73;;;3.72;85.56
51147;BME280;37207;53.060;18.726;2023-02-01T14:57:43;99427.17;;;3.68;85.86
51147;BME280;37207;53.060;18.726;2023-02-01T15:00:25;99422.48;;;3.65;86.01
51147;BME280;37207;53.060;18.726;2023-02-01T15:02:54;99425.73;;;3.62;86.30
51147;BME280;37207;53.060;18.726;2023-02-01T15:05:32;99430.60;;;3.58;86.49
51147;BME280;37207;53.060;18.726;2023-02-01T15:08:13;99431.73;;;3.55;86.58
51147;BME280;37207;53.060;18.726;2023-02-01T15:10:46;99428.71;;;3.53;86.55
51147;BME280;37207;53.060;18.726;2023-02-01T15:13:23;99429.50;;;3.53;86.54
51147;BME280;37207;53.060;18.726;2023-02-01T15:16:11;99429.44;;;3.53;86.60
51147;BME280;37207;53.060;18.726;2023-02-01T15:18:40;99430.08;;;3.52;86.80
51147;BME280;37207;53.060;18.726;2023-02-01T15:21:20;99431.60;;;3.51;86.75
51147;BME280;37207;53.060;18.726;2023-02-01T15:23:47;99431.14;;;3.51;86.74
51147;BME280;37207;53.060;18.726;2023-02-01T15:26:29;99428.60;;;3.50;86.77
51147;BME280;37207;53.060;18.726;2023-02-01T15:28:57;99430.79;;;3.50;86.61
51147;BME280;37207;53.060;18.726;2023-02-01T15:31:51;99435.24;;;3.50;86.76
51147;BME280;37207;53.060;18.726;2023-02-01T15:34:20;99430.30;;;3.49;86.93
51147;BME280;37207;53.060;18.726;2023-02-01T15:36:47;99433.52;;;3.48;86.68
51147;BME280;37207;53.060;18.726;2023-02-01T15:39:25;99430.86;;;3.47;86.86
51147;BME280;37207;53.060;18.726;2023-02-01T15:41:57;99438.89;;;3.46;86.80
51147;BME280;37207;53.060;18.726;2023-02-01T15:46:54;99439.61;;;3.44;86.83
51147;BME280;37207;53.060;18.726;2023-02-01T15:49:28;99439.37;;;3.44;86.87
51147;BME280;37207;53.060;18.726;2023-02-01T15:51:57;99444.03;;;3.44;86.93
51147;BME280;37207;53.060;18.726;2023-02-01T15:54:31;99441.45;;;3.44;86.96
51147;BME280;37207;53.060;18.726;2023-02-01T15:57:01;99447.16;;;3.44;87.02
51147;BME280;37207;53.060;18.726;2023-02-01T15:59:37;99451.63;;;3.44;87.08
51147;BME280;37207;53.060;18.726;2023-02-01T16:02:53;99449.23;;;3.44;86.99